sensor_id;sensor_type;location;lat;lon;timestamp;P1;durP1;ratioP1;P2;durP2;ratioP2
5199;SDS011;2619;47.868;11.892;2023-01-28T00:00:48;28.63;;;13.00;;
5199;SDS011;2619;47.868;11.892;2023-01-28T00:03:14;24.00;;;12.67;;
5199;SDS011;2619;47.868;11.892;2023-01-28T00:05:40;25.97;;;14.43;;
5199;SDS011;2619;47.868;11.892;2023-01-28T00:08:06;24.77;;;13.87;;
5199;SDS011;2619;47.868;11.892;2023-01-28T00:10:31;25.03;;;11.97;;
5199;SDS011;2619;47.868;11.892;2023-01-28T00:12:57;32.30;;;14.13;;
5199;SDS011;2619;47.868;11.892;2023-01-28T00:15:22;28.33;;;13.47;;
5199;SDS011;2619;47.868;11.892;2023-01-28T00:17:49;23.43;;;12.57;;
5199;SDS011;2619;47.868;11.892;2023-01-28T00:20:15;29.77;;;13.70;;
5199;SDS011;2619;47.868;11.892;2023-01-28T00:22:45;28.57;;;13.13;;
5199;SDS011;2619;47.868;11.892;2023-01-28T00:25:12;27.80;;;13.07;;
5199;SDS011;2619;47.868;11.892;2023-01-28T00:27:38;29.63;;;16.17;;
5199;SDS011;2619;47.868;11.892;2023-01-28T00:30:03;30.13;;;13.77;;
5199;SDS011;2619;47.868;11.892;2023-01-28T00:32:29;24.57;;;12.33;;
5199;SDS011;2619;47.868;11.892;2023-01-28T00:34:55;27.10;;;13.10;;
5199;SDS011;2619;47.868;11.892;2023-01-28T00:37:21;27.57;;;14.50;;
5199;SDS011;2619;47.868;11.892;2023-01-28T00:39:46;27.40;;;14.73;;
5199;SDS011;2619;47.868;11.892;2023-01-28T00:42:13;24.03;;;13.20;;
5199;SDS011;2619;47.868;11.892;2023-01-28T00:44:38;31.37;;;13.57;;
5199;SDS011;2619;47.868;11.892;2023-01-28T00:47:04;22.33;;;11.40;;
5199;SDS011;2619;47.868;11.892;2023-01-28T00:49:29;30.07;;;14.60;;
5199;SDS011;2619;47.868;11.892;2023-01-28T00:51:55;27.17;;;13.83;;
5199;SDS011;2619;47.868;11.892;2023-01-28T00:54:21;25.63;;;12.63;;
5199;SDS011;2619;47.868;11.892;2023-01-28T00:56:46;24.90;;;12.80;;
5199;SDS011;2619;47.868;11.892;2023-01-28T00:59:12;32.23;;;14.93;;
5199;SDS011;2619;47.868;11.892;2023-01-28T01:01:38;29.23;;;14.73;;
5199;SDS011;2619;47.868;11.892;2023-01-28T01:04:03;32.60;;;13.50;;
5199;SDS011;2619;47.868;11.892;2023-01-28T01:06:31;35.53;;;17.13;;
5199;SDS011;2619;47.868;11.892;2023-01-28T01:08:59;33.23;;;13.63;;
5199;SDS011;2619;47.868;11.892;2023-01-28T01:11:25;26.87;;;12.83;;
5199;SDS011;2619;47.868;11.892;2023-01-28T01:13:55;25.40;;;12.87;;
5199;SDS011;2619;47.868;11.892;2023-01-28T01:16:28;28.03;;;14.53;;
5199;SDS011;2619;47.868;11.892;2023-01-28T01:18:57;30.00;;;14.43;;
5199;SDS011;2619;47.868;11.892;2023-01-28T01:21:24;34.80;;;15.13;;
5199;SDS011;2619;47.868;11.892;2023-01-28T01:23:52;30.90;;;13.63;;
5199;SDS011;2619;47.868;11.892;2023-01-28T01:26:19;24.57;;;13.20;;
5199;SDS011;2619;47.868;11.892;2023-01-28T01:28:45;31.00;;;15.17;;
5199;SDS011;2619;47.868;11.892;2023-01-28T01:31:11;31.50;;;14.73;;
5199;SDS011;2619;47.868;11.892;2023-01-28T01:33:41;32.57;;;14.67;;
5199;SDS011;2619;47.868;11.892;2023-01-28T01:36:09;32.07;;;15.50;;
5199;SDS011;2619;47.868;11.892;2023-01-28T01:38:35;26.17;;;14.70;;
5199;SDS011;2619;47.868;11.892;2023-01-28T01:41:02;31.47;;;14.23;;
5199;SDS011;2619;47.868;11.892;2023-01-28T01:46:35;29.83;;;13.67;;
5199;SDS011;2619;47.868;11.892;2023-01-28T01:49:06;34.07;;;17.50;;
5199;SDS011;2619;47.868;11.892;2023-01-28T01:51:48;33.33;;;15.20;;
5199;SDS011;2619;47.868;11.892;2023-01-28T01:54:22;30.40;;;14.33;;
5199;SDS011;2619;47.868;11.892;2023-01-28T01:56:50;29.63;;;13.23;;
5199;SDS011;2619;47.868;11.892;2023-01-28T01:59:19;31.60;;;14.57;;
5199;SDS011;2619;47.868;11.892;2023-01-28T02:01:48;28.63;;;14.17;;
5199;SDS011;2619;47.868;11.892;2023-01-28T02:04:24;27.50;;;14.80;;
5199;SDS011;2619;47.868;11.892;2023-01-28T02:06:55;30.80;;;14.07;;
5199;SDS011;2619;47.868;11.892;2023-01-28T02:09:25;35.27;;;15.70;;
5199;SDS011;2619;47.868;11.892;2023-01-28T02:11:56;32.07;;;13.70;;
5199;SDS011;2619;47.868;11.892;2023-01-28T02:14:29;25.50;;;13.73;;
5199;SDS011;2619;47.868;11.892;2023-01-28T02:16:59;29.10;;;13.77;;
5199;SDS011;2619;47.868;11.892;2023-01-28T02:19:28;36.53;;;16.17;;
5199;SDS011;2619;47.868;11.892;2023-01-28T02:22:07;33.90;;;14.13;;
5199;SDS011;2619;47.868;11.892;2023-01-28T02:24:53;26.30;;;13.37;;
5199;SDS011;2619;47.868;11.892;2023-01-28T02:27:54;26.00;;;12.77;;
5199;SDS011;2619;47.868;11.892;2023-01-28T02:30:40;25.73;;;13.07;;
5199;SDS011;2619;47.868;11.892;2023-01-28T02:33:13;25.63;;;12.63;;
5199;SDS011;2619;47.868;11.892;2023-01-28T02:35:48;25.40;;;12.07;;
5199;SDS011;2619;47.868;11.892;2023-01-28T02:38:19;24.40;;;12.30;;
5199;SDS011;2619;47.868;11.892;2023-01-28T02:40:53;27.93;;;13.47;;
5199;SDS011;2619;47.868;11.892;2023-01-28T02:43:32;32.00;;;13.13;;
5199;SDS011;2619;47.868;11.892;2023-01-28T02:45:58;31.60;;;13.93;;
5199;SDS011;2619;47.868;11.892;2023-01-28T02:48:44;26.53;;;13.40;;
5199;SDS011;2619;47.868;11.892;2023-01-28T02:51:33;30.77;;;14.73;;
5199;SDS011;2619;47.868;11.892;2023-01-28T02:54:09;31.40;;;14.30;;
5199;SDS011;2619;47.868;11.892;2023-01-28T02:56:41;25.93;;;14.23;;
5199;SDS011;2619;47.868;11.892;2023-01-28T02:59:29;29.73;;;13.77;;
5199;SDS011;2619;47.868;11.892;2023-01-28T03:05:03;26.57;;;13.23;;
5199;SDS011;2619;47.868;11.892;2023-01-28T03:07:31;30.03;;;12.73;;
5199;SDS011;2619;47.868;11.892;2023-01-28T03:09:59;31.20;;;14.10;;
5199;SDS011;2619;47.868;11.892;2023-01-28T03:12:30;27.90;;;12.60;;
5199;SDS011;2619;47.868;11.892;2023-01-28T03:15:16;28.80;;;13.77;;
5199;SDS011;2619;47.868;11.892;2023-01-28T03:18:09;25.67;;;13.13;;
5199;SDS011;2619;47.868;11.892;2023-01-28T03:21:04;30.27;;;13.07;;
5199;SDS011;2619;47.868;11.892;2023-01-28T03:23:53;33.37;;;13.50;;
5199;SDS011;2619;47.868;11.892;2023-01-28T03:26:53;31.80;;;13.90;;
5199;SDS011;2619;47.868;11.892;2023-01-28T03:29:39;24.53;;;10.50;;
5199;SDS011;2619;47.868;11.892;2023-01-28T03:32:26;30.00;;;12.57;;
5199;SDS011;2619;47.868;11.892;2023-01-28T03:35:11;26.70;;;13.53;;
5199;SDS011;2619;47.868;11.892;2023-01-28T03:37:59;25.80;;;13.10;;
5199;SDS011;2619;47.868;11.892;2023-01-28T03:40:25;27.00;;;11.80;;
5199;SDS011;2619;47.868;11.892;2023-01-28T03:42:51;24.60;;;12.50;;
5199;SDS011;2619;47.868;11.892;2023-01-28T03:45:18;29.03;;;13.00;;
5199;SDS011;2619;47.868;11.892;2023-01-28T03:47:45;28.20;;;12.93;;
5199;SDS011;2619;47.868;11.892;2023-01-28T03:50:11;27.47;;;12.30;;
5199;SDS011;2619;47.868;11.892;2023-01-28T03:52:36;31.53;;;13.03;;
5199;SDS011;2619;47.868;11.892;2023-01-28T03:55:02;24.53;;;11.67;;
5199;SDS011;2619;47.868;11.892;2023-01-28T03:57:37;31.40;;;13.70;;
5199;SDS011;2619;47.868;11.892;2023-01-28T04:00:03;32.77;;;13.93;;
5199;SDS011;2619;47.868;11.892;2023-01-28T04:02:30;28.43;;;12.27;;
5199;SDS011;2619;47.868;11.892;2023-01-28T04:04:56;27.50;;;10.57;;
5199;SDS011;2619;47.868;11.892;2023-01-28T04:07:23;32.83;;;12.13;;
5199;SDS011;2619;47.868;11.892;2023-01-28T04:09:48;22.40;;;12.47;;
5199;SDS011;2619;47.868;11.892;2023-01-28T04:12:14;25.73;;;11.87;;
5199;SDS011;2619;47.868;11.892;2023-01-28T04:14:39;29.67;;;12.50;;
5199;SDS011;2619;47.868;11.892;2023-01-28T04:17:06;23.67;;;13.23;;
5199;SDS011;2619;47.868;11.892;2023-01-28T04:19:34;30.40;;;13.43;;
5199;SDS011;2619;47.868;11.892;2023-01-28T04:22:02;33.10;;;13.70;;
5199;SDS011;2619;47.868;11.892;2023-01-28T04:24:29;28.57;;;11.40;;
5199;SDS011;2619;47.868;11.892;2023-01-28T04:26:54;31.27;;;11.87;;
5199;SDS011;2619;47.868;11.892;2023-01-28T04:29:20;22.27;;;11.20;;
5199;SDS011;2619;47.868;11.892;2023-01-28T04:31:45;21.17;;;11.10;;
5199;SDS011;2619;47.868;11.892;2023-01-28T04:34:11;27.97;;;12.50;;
5199;SDS011;2619;47.868;11.892;2023-01-28T04:36:36;22.63;;;11.40;;
5199;SDS011;2619;47.868;11.892;2023-01-28T04:39:02;30.60;;;12.13;;
5199;SDS011;2619;47.868;11.892;2023-01-28T04:41:28;26.03;;;12.37;;
5199;SDS011;2619;47.868;11.892;2023-01-28T04:43:54;24.83;;;12.80;;
5199;SDS011;2619;47.868;11.892;2023-01-28T04:46:19;23.83;;;11.30;;
5199;SDS011;2619;47.868;11.892;2023-01-28T04:48:45;25.13;;;12.07;;
5199;SDS011;2619;47.868;11.892;2023-01-28T04:51:11;25.20;;;11.80;;
5199;SDS011;2619;47.868;11.892;2023-01-28T04:53:36;24.20;;;11.93;;
5199;SDS011;2619;47.868;11.892;2023-01-28T04:56:02;26.63;;;12.50;;
5199;SDS011;2619;47.868;11.892;2023-01-28T04:58:27;24.77;;;11.43;;
5199;SDS011;2619;47.868;11.892;2023-01-28T05:00:54;25.77;;;12.20;;
5199;SDS011;2619;47.868;11.892;2023-01-28T05:03:20;28.27;;;12.57;;
5199;SDS011;2619;47.868;11.892;2023-01-28T05:05:46;24.57;;;11.60;;
5199;SDS011;2619;47.868;11.892;2023-01-28T05:08:11;25.40;;;12.63;;
5199;SDS011;2619;47.868;11.892;2023-01-28T05:10:37;20.50;;;10.90;;
5199;SDS011;2619;47.868;11.892;2023-01-28T05:13:04;25.30;;;12.17;;
5199;SDS011;2619;47.868;11.892;2023-01-28T05:15:30;23.40;;;11.87;;
5199;SDS011;2619;47.868;11.892;2023-01-28T05:17:55;23.53;;;11.97;;
5199;SDS011;2619;47.868;11.892;2023-01-28T05:20:21;31.60;;;13.47;;
5199;SDS011;2619;47.868;11.892;2023-01-28T05:22:47;25.23;;;11.70;;
5199;SDS011;2619;47.868;11.892;2023-01-28T05:25:12;20.57;;;11.50;;
5199;SDS011;2619;47.868;11.892;2023-01-28T05:27:38;31.70;;;13.10;;
5199;SDS011;2619;47.868;11.892;2023-01-28T05:30:03;22.60;;;12.07;;
5199;SDS011;2619;47.868;11.892;2023-01-28T05:32:30;29.47;;;13.47;;
5199;SDS011;2619;47.868;11.892;2023-01-28T05:34:56;33.07;;;14.27;;
5199;SDS011;2619;47.868;11.892;2023-01-28T05:37:21;32.43;;;12.80;;
5199;SDS011;2619;47.868;11.892;2023-01-28T05:39:47;26.30;;;12.30;;
5199;SDS011;2619;47.868;11.892;2023-01-28T05:42:13;27.70;;;13.57;;
5199;SDS011;2619;47.868;11.892;2023-01-28T05:44:39;29.80;;;14.33;;
5199;SDS011;2619;47.868;11.892;2023-01-28T05:47:05;26.73;;;14.60;;
5199;SDS011;2619;47.868;11.892;2023-01-28T05:49:31;25.13;;;12.60;;
5199;SDS011;2619;47.868;11.892;2023-01-28T05:51:56;27.60;;;12.67;;
5199;SDS011;2619;47.868;11.892;2023-01-28T05:54:22;27.30;;;13.97;;
5199;SDS011;2619;47.868;11.892;2023-01-28T05:56:47;28.90;;;13.40;;
5199;SDS011;2619;47.868;11.892;2023-01-28T05:59:13;31.73;;;15.07;;
5199;SDS011;2619;47.868;11.892;2023-01-28T06:01:39;24.40;;;12.93;;
5199;SDS011;2619;47.868;11.892;2023-01-28T06:04:05;27.67;;;13.67;;
5199;SDS011;2619;47.868;11.892;2023-01-28T06:06:30;24.20;;;12.70;;
5199;SDS011;2619;47.868;11.892;2023-01-28T06:08:56;30.73;;;14.10;;
5199;SDS011;2619;47.868;11.892;2023-01-28T06:11:22;31.03;;;13.50;;
5199;SDS011;2619;47.868;11.892;2023-01-28T06:13:47;29.50;;;12.23;;
5199;SDS011;2619;47.868;11.892;2023-01-28T06:16:13;28.57;;;12.20;;
5199;SDS011;2619;47.868;11.892;2023-01-28T06:18:38;30.90;;;12.80;;
5199;SDS011;2619;47.868;11.892;2023-01-28T06:21:05;29.77;;;13.63;;
5199;SDS011;2619;47.868;11.892;2023-01-28T06:23:31;22.40;;;11.57;;
5199;SDS011;2619;47.868;11.892;2023-01-28T06:25:57;23.90;;;11.97;;
5199;SDS011;2619;47.868;11.892;2023-01-28T06:28:23;25.43;;;12.60;;
5199;SDS011;2619;47.868;11.892;2023-01-28T06:30:49;27.87;;;13.83;;
5199;SDS011;2619;47.868;11.892;2023-01-28T06:33:15;26.47;;;13.77;;
5199;SDS011;2619;47.868;11.892;2023-01-28T06:35:41;29.20;;;13.00;;
5199;SDS011;2619;47.868;11.892;2023-01-28T06:38:08;26.00;;;12.13;;
5199;SDS011;2619;47.868;11.892;2023-01-28T06:40:35;29.37;;;13.50;;
5199;SDS011;2619;47.868;11.892;2023-01-28T06:43:00;29.17;;;12.50;;
5199;SDS011;2619;47.868;11.892;2023-01-28T06:45:26;29.77;;;13.80;;
5199;SDS011;2619;47.868;11.892;2023-01-28T06:47:52;29.37;;;13.60;;
5199;SDS011;2619;47.868;11.892;2023-01-28T06:50:17;30.27;;;13.97;;
5199;SDS011;2619;47.868;11.892;2023-01-28T06:52:43;25.00;;;14.07;;
5199;SDS011;2619;47.868;11.892;2023-01-28T06:55:09;32.83;;;14.83;;
5199;SDS011;2619;47.868;11.892;2023-01-28T06:57:36;33.90;;;13.47;;
5199;SDS011;2619;47.868;11.892;2023-01-28T07:00:03;32.60;;;13.87;;
5199;SDS011;2619;47.868;11.892;2023-01-28T07:02:30;30.90;;;14.20;;
5199;SDS011;2619;47.868;11.892;2023-01-28T07:04:56;27.20;;;13.83;;
5199;SDS011;2619;47.868;11.892;2023-01-28T07:07:21;25.97;;;13.37;;
5199;SDS011;2619;47.868;11.892;2023-01-28T07:09:47;23.97;;;12.10;;
5199;SDS011;2619;47.868;11.892;2023-01-28T07:12:12;29.27;;;14.20;;
5199;SDS011;2619;47.868;11.892;2023-01-28T07:14:38;27.97;;;13.43;;
5199;SDS011;2619;47.868;11.892;2023-01-28T07:17:04;28.20;;;14.40;;
5199;SDS011;2619;47.868;11.892;2023-01-28T07:19:30;27.43;;;12.00;;
5199;SDS011;2619;47.868;11.892;2023-01-28T07:21:56;30.60;;;13.90;;
5199;SDS011;2619;47.868;11.892;2023-01-28T07:24:24;30.07;;;13.43;;
5199;SDS011;2619;47.868;11.892;2023-01-28T07:26:50;29.53;;;13.27;;
5199;SDS011;2619;47.868;11.892;2023-01-28T07:29:16;28.37;;;13.10;;
5199;SDS011;2619;47.868;11.892;2023-01-28T07:31:41;25.17;;;12.00;;
5199;SDS011;2619;47.868;11.892;2023-01-28T07:34:07;34.83;;;14.43;;
5199;SDS011;2619;47.868;11.892;2023-01-28T07:36:33;28.47;;;13.30;;
5199;SDS011;2619;47.868;11.892;2023-01-28T07:38:59;33.23;;;14.90;;
5199;SDS011;2619;47.868;11.892;2023-01-28T07:41:24;32.37;;;13.77;;
5199;SDS011;2619;47.868;11.892;2023-01-28T07:43:50;28.80;;;13.90;;
5199;SDS011;2619;47.868;11.892;2023-01-28T07:46:15;28.67;;;13.60;;
5199;SDS011;2619;47.868;11.892;2023-01-28T07:48:41;28.73;;;13.33;;
5199;SDS011;2619;47.868;11.892;2023-01-28T07:51:07;28.43;;;14.00;;
5199;SDS011;2619;47.868;11.892;2023-01-28T07:53:32;25.47;;;12.90;;
5199;SDS011;2619;47.868;11.892;2023-01-28T07:55:59;27.70;;;14.17;;
5199;SDS011;2619;47.868;11.892;2023-01-28T07:58:25;31.63;;;15.93;;
5199;SDS011;2619;47.868;11.892;2023-01-28T08:00:54;40.80;;;14.63;;
5199;SDS011;2619;47.868;11.892;2023-01-28T08:03:23;27.97;;;13.37;;
5199;SDS011;2619;47.868;11.892;2023-01-28T08:05:50;32.70;;;15.10;;
5199;SDS011;2619;47.868;11.892;2023-01-28T08:08:17;32.00;;;14.70;;
5199;SDS011;2619;47.868;11.892;2023-01-28T08:10:44;29.40;;;13.27;;
5199;SDS011;2619;47.868;11.892;2023-01-28T08:13:10;29.30;;;14.33;;
5199;SDS011;2619;47.868;11.892;2023-01-28T08:15:36;30.33;;;13.10;;
5199;SDS011;2619;47.868;11.892;2023-01-28T08:18:03;28.70;;;13.90;;
5199;SDS011;2619;47.868;11.892;2023-01-28T08:20:30;29.93;;;13.37;;
5199;SDS011;2619;47.868;11.892;2023-01-28T08:25:36;31.07;;;14.07;;
5199;SDS011;2619;47.868;11.892;2023-01-28T08:28:02;29.07;;;13.20;;
5199;SDS011;2619;47.868;11.892;2023-01-28T08:30:29;27.73;;;13.10;;
5199;SDS011;2619;47.868;11.892;2023-01-28T08:32:55;35.67;;;15.37;;
5199;SDS011;2619;47.868;11.892;2023-01-28T08:35:24;32.63;;;14.30;;
5199;SDS011;2619;47.868;11.892;2023-01-28T08:37:51;30.00;;;13.50;;
5199;SDS011;2619;47.868;11.892;2023-01-28T08:40:18;27.60;;;13.90;;
5199;SDS011;2619;47.868;11.892;2023-01-28T08:42:50;28.50;;;12.23;;
5199;SDS011;2619;47.868;11.892;2023-01-28T08:45:17;27.90;;;12.80;;
5199;SDS011;2619;47.868;11.892;2023-01-28T08:47:53;27.37;;;13.10;;
5199;SDS011;2619;47.868;11.892;2023-01-28T08:50:23;25.77;;;12.73;;
5199;SDS011;2619;47.868;11.892;2023-01-28T08:52:57;27.00;;;12.87;;
5199;SDS011;2619;47.868;11.892;2023-01-28T08:55:24;29.10;;;13.30;;
5199;SDS011;2619;47.868;11.892;2023-01-28T08:57:50;28.17;;;14.90;;
5199;SDS011;2619;47.868;11.892;2023-01-28T09:00:16;27.40;;;13.87;;
5199;SDS011;2619;47.868;11.892;2023-01-28T09:02:42;24.70;;;12.50;;
5199;SDS011;2619;47.868;11.892;2023-01-28T09:05:07;31.37;;;13.90;;
5199;SDS011;2619;47.868;11.892;2023-01-28T09:07:34;32.03;;;13.47;;
5199;SDS011;2619;47.868;11.892;2023-01-28T09:10:00;26.37;;;13.50;;
5199;SDS011;2619;47.868;11.892;2023-01-28T09:12:26;25.40;;;11.57;;
5199;SDS011;2619;47.868;11.892;2023-01-28T09:14:52;29.60;;;14.57;;
5199;SDS011;2619;47.868;11.892;2023-01-28T09:17:20;24.10;;;13.17;;
5199;SDS011;2619;47.868;11.892;2023-01-28T09:19:46;28.70;;;13.13;;
5199;SDS011;2619;47.868;11.892;2023-01-28T09:22:11;28.27;;;13.07;;
5199;SDS011;2619;47.868;11.892;2023-01-28T09:24:37;29.13;;;14.10;;
5199;SDS011;2619;47.868;11.892;2023-01-28T09:27:02;40.97;;;17.33;;
5199;SDS011;2619;47.868;11.892;2023-01-28T09:29:28;34.57;;;16.43;;
5199;SDS011;2619;47.868;11.892;2023-01-28T09:31:53;33.43;;;15.20;;
5199;SDS011;2619;47.868;11.892;2023-01-28T09:34:19;26.27;;;14.27;;
5199;SDS011;2619;47.868;11.892;2023-01-28T09:36:45;37.47;;;16.00;;
5199;SDS011;2619;47.868;11.892;2023-01-28T09:39:10;35.43;;;16.27;;
5199;SDS011;2619;47.868;11.892;2023-01-28T09:41:42;24.90;;;13.77;;
5199;SDS011;2619;47.868;11.892;2023-01-28T09:44:37;24.20;;;12.27;;
5199;SDS011;2619;47.868;11.892;2023-01-28T09:47:25;22.80;;;12.40;;
5199;SDS011;2619;47.868;11.892;2023-01-28T09:49:57;22.57;;;11.70;;
5199;SDS011;2619;47.868;11.892;2023-01-28T09:52:27;24.20;;;12.60;;
5199;SDS011;2619;47.868;11.892;2023-01-28T09:54:59;24.37;;;12.13;;
5199;SDS011;2619;47.868;11.892;2023-01-28T09:57:38;23.20;;;11.77;;
5199;SDS011;2619;47.868;11.892;2023-01-28T10:00:12;27.00;;;13.63;;
5199;SDS011;2619;47.868;11.892;2023-01-28T10:11:19;21.30;;;11.20;;
5199;SDS011;2619;47.868;11.892;2023-01-28T10:18:55;26.57;;;12.03;;
5199;SDS011;2619;47.868;11.892;2023-01-28T10:21:40;20.10;;;10.90;;
5199;SDS011;2619;47.868;11.892;2023-01-28T10:26:37;22.23;;;11.87;;
5199;SDS011;2619;47.868;11.892;2023-01-28T10:29:16;29.30;;;12.90;;
5199;SDS011;2619;47.868;11.892;2023-01-28T10:31:46;24.97;;;12.00;;
5199;SDS011;2619;47.868;11.892;2023-01-28T10:34:38;21.40;;;11.13;;
5199;SDS011;2619;47.868;11.892;2023-01-28T10:37:04;19.97;;;11.87;;
5199;SDS011;2619;47.868;11.892;2023-01-28T10:39:29;23.23;;;11.70;;
5199;SDS011;2619;47.868;11.892;2023-01-28T10:41:55;23.73;;;12.80;;
5199;SDS011;2619;47.868;11.892;2023-01-28T10:44:26;22.00;;;12.40;;
5199;SDS011;2619;47.868;11.892;2023-01-28T10:46:57;21.77;;;11.17;;
5199;SDS011;2619;47.868;11.892;2023-01-28T10:49:27;24.03;;;13.00;;
5199;SDS011;2619;47.868;11.892;2023-01-28T10:51:54;19.90;;;11.10;;
5199;SDS011;2619;47.868;11.892;2023-01-28T10:56:51;26.17;;;13.00;;
5199;SDS011;2619;47.868;11.892;2023-01-28T10:59:21;30.40;;;12.80;;
5199;SDS011;2619;47.868;11.892;2023-01-28T11:04:30;21.40;;;11.20;;
5199;SDS011;2619;47.868;11.892;2023-01-28T11:07:17;21.70;;;11.50;;
5199;SDS011;2619;47.868;11.892;2023-01-28T11:09:46;19.30;;;10.97;;
5199;SDS011;2619;47.868;11.892;2023-01-28T11:12:19;22.83;;;11.97;;
5199;SDS011;2619;47.868;11.892;2023-01-28T11:14:50;20.93;;;12.60;;
5199;SDS011;2619;47.868;11.892;2023-01-28T11:17:17;22.40;;;12.07;;
5199;SDS011;2619;47.868;11.892;2023-01-28T11:19:45;24.40;;;13.10;;
5199;SDS011;2619;47.868;11.892;2023-01-28T11:22:44;24.47;;;13.70;;
5199;SDS011;2619;47.868;11.892;2023-01-28T11:25:14;23.57;;;12.57;;
5199;SDS011;2619;47.868;11.892;2023-01-28T11:27:47;21.13;;;11.93;;
5199;SDS011;2619;47.868;11.892;2023-01-28T11:30:19;21.13;;;11.33;;
5199;SDS011;2619;47.868;11.892;2023-01-28T11:32:54;19.13;;;10.27;;
5199;SDS011;2619;47.868;11.892;2023-01-28T11:35:40;22.77;;;11.53;;
5199;SDS011;2619;47.868;11.892;2023-01-28T11:38:19;20.00;;;11.30;;
5199;SDS011;2619;47.868;11.892;2023-01-28T11:40:53;19.57;;;9.90;;
5199;SDS011;2619;47.868;11.892;2023-01-28T11:43:20;18.27;;;11.27;;
5199;SDS011;2619;47.868;11.892;2023-01-28T12:10:23;24.90;;;13.13;;
5199;SDS011;2619;47.868;11.892;2023-01-28T12:18:39;25.57;;;13.10;;
5199;SDS011;2619;47.868;11.892;2023-01-28T12:26:25;18.80;;;10.90;;
5199;SDS011;2619;47.868;11.892;2023-01-28T12:45:24;17.47;;;10.43;;
5199;SDS011;2619;47.868;11.892;2023-01-28T12:48:02;14.07;;;9.70;;
5199;SDS011;2619;47.868;11.892;2023-01-28T12:50:40;20.90;;;11.30;;
5199;SDS011;2619;47.868;11.892;2023-01-28T12:56:13;17.90;;;11.20;;
5199;SDS011;2619;47.868;11.892;2023-01-28T13:01:12;20.80;;;11.83;;
5199;SDS011;2619;47.868;11.892;2023-01-28T13:03:50;18.47;;;10.23;;
5199;SDS011;2619;47.868;11.892;2023-01-28T13:06:26;17.40;;;10.53;;
5199;SDS011;2619;47.868;11.892;2023-01-28T13:09:02;18.50;;;10.87;;
5199;SDS011;2619;47.868;11.892;2023-01-28T13:11:37;20.57;;;11.90;;
5199;SDS011;2619;47.868;11.892;2023-01-28T13:14:03;16.13;;;10.13;;
5199;SDS011;2619;47.868;11.892;2023-01-28T13:16:29;18.77;;;10.70;;
5199;SDS011;2619;47.868;11.892;2023-01-28T13:19:03;21.17;;;10.50;;
5199;SDS011;2619;47.868;11.892;2023-01-28T13:21:44;19.30;;;10.23;;
5199;SDS011;2619;47.868;11.892;2023-01-28T13:31:38;19.50;;;10.57;;
5199;SDS011;2619;47.868;11.892;2023-01-28T13:34:07;21.00;;;11.00;;
5199;SDS011;2619;47.868;11.892;2023-01-28T13:36:51;19.57;;;12.10;;
5199;SDS011;2619;47.868;11.892;2023-01-28T13:39:19;20.87;;;11.80;;
5199;SDS011;2619;47.868;11.892;2023-01-28T13:46:49;20.93;;;10.80;;
5199;SDS011;2619;47.868;11.892;2023-01-28T13:49:31;20.57;;;11.17;;
5199;SDS011;2619;47.868;11.892;2023-01-28T13:55:22;30.77;;;15.30;;
5199;SDS011;2619;47.868;11.892;2023-01-28T13:57:39;25.20;;;13.37;;
5199;SDS011;2619;47.868;11.892;2023-01-28T14:20:17;20.80;;;11.27;;
5199;SDS011;2619;47.868;11.892;2023-01-28T14:22:46;19.27;;;11.10;;
5199;SDS011;2619;47.868;11.892;2023-01-28T14:25:14;16.43;;;9.53;;
5199;SDS011;2619;47.868;11.892;2023-01-28T14:27:46;18.60;;;10.60;;
5199;SDS011;2619;47.868;11.892;2023-01-28T14:30:33;23.27;;;11.20;;
5199;SDS011;2619;47.868;11.892;2023-01-28T14:33:19;23.43;;;11.43;;
5199;SDS011;2619;47.868;11.892;2023-01-28T14:35:47;20.60;;;11.33;;
5199;SDS011;2619;47.868;11.892;2023-01-28T14:38:14;19.90;;;11.87;;
5199;SDS011;2619;47.868;11.892;2023-01-28T14:40:43;23.07;;;11.90;;
5199;SDS011;2619;47.868;11.892;2023-01-28T14:43:17;20.00;;;12.10;;
5199;SDS011;2619;47.868;11.892;2023-01-28T14:48:25;24.57;;;11.70;;
5199;SDS011;2619;47.868;11.892;2023-01-28T14:51:12;23.27;;;11.97;;
5199;SDS011;2619;47.868;11.892;2023-01-28T14:59:13;19.27;;;10.17;;
5199;SDS011;2619;47.868;11.892;2023-01-28T15:01:53;18.47;;;11.27;;
5199;SDS011;2619;47.868;11.892;2023-01-28T15:06:49;20.93;;;11.50;;
5199;SDS011;2619;47.868;11.892;2023-01-28T15:09:15;19.67;;;11.37;;
5199;SDS011;2619;47.868;11.892;2023-01-28T15:11:41;17.53;;;10.20;;
5199;SDS011;2619;47.868;11.892;2023-01-28T15:14:12;19.10;;;12.17;;
5199;SDS011;2619;47.868;11.892;2023-01-28T15:16:49;21.33;;;11.60;;
5199;SDS011;2619;47.868;11.892;2023-01-28T15:19:15;18.90;;;11.30;;
5199;SDS011;2619;47.868;11.892;2023-01-28T15:21:44;25.83;;;11.90;;
5199;SDS011;2619;47.868;11.892;2023-01-28T15:24:11;25.70;;;12.83;;
5199;SDS011;2619;47.868;11.892;2023-01-28T15:26:38;24.07;;;12.33;;
5199;SDS011;2619;47.868;11.892;2023-01-28T15:29:19;19.77;;;10.97;;
5199;SDS011;2619;47.868;11.892;2023-01-28T15:31:48;20.87;;;11.03;;
5199;SDS011;2619;47.868;11.892;2023-01-28T15:34:15;16.63;;;9.83;;
5199;SDS011;2619;47.868;11.892;2023-01-28T15:36:43;17.33;;;10.43;;
5199;SDS011;2619;47.868;11.892;2023-01-28T15:39:21;19.90;;;12.20;;
5199;SDS011;2619;47.868;11.892;2023-01-28T15:41:55;23.47;;;11.73;;
5199;SDS011;2619;47.868;11.892;2023-01-28T15:44:31;17.90;;;11.17;;
5199;SDS011;2619;47.868;11.892;2023-01-28T15:46:58;20.00;;;11.17;;
5199;SDS011;2619;47.868;11.892;2023-01-28T15:49:29;18.93;;;11.30;;
5199;SDS011;2619;47.868;11.892;2023-01-28T15:52:00;21.27;;;11.47;;
5199;SDS011;2619;47.868;11.892;2023-01-28T15:54:26;19.33;;;11.40;;
5199;SDS011;2619;47.868;11.892;2023-01-28T15:56:54;22.57;;;11.87;;
5199;SDS011;2619;47.868;11.892;2023-01-28T15:59:27;22.20;;;12.23;;
5199;SDS011;2619;47.868;11.892;2023-01-28T16:05:00;20.00;;;11.07;;
5199;SDS011;2619;47.868;11.892;2023-01-28T16:07:28;18.70;;;10.20;;
5199;SDS011;2619;47.868;11.892;2023-01-28T16:09:56;20.77;;;10.70;;
5199;SDS011;2619;47.868;11.892;2023-01-28T16:12:24;20.27;;;9.83;;
5199;SDS011;2619;47.868;11.892;2023-01-28T16:14:53;19.90;;;11.30;;
5199;SDS011;2619;47.868;11.892;2023-01-28T16:17:21;21.03;;;11.77;;
5199;SDS011;2619;47.868;11.892;2023-01-28T16:19:56;23.87;;;12.60;;
5199;SDS011;2619;47.868;11.892;2023-01-28T16:22:31;34.40;;;19.60;;
5199;SDS011;2619;47.868;11.892;2023-01-28T16:24:57;25.67;;;13.93;;
5199;SDS011;2619;47.868;11.892;2023-01-28T16:27:24;21.53;;;10.90;;
5199;SDS011;2619;47.868;11.892;2023-01-28T16:29:52;19.97;;;11.40;;
5199;SDS011;2619;47.868;11.892;2023-01-28T16:32:38;20.50;;;12.83;;
5199;SDS011;2619;47.868;11.892;2023-01-28T16:37:58;21.77;;;12.40;;
5199;SDS011;2619;47.868;11.892;2023-01-28T16:40:24;26.00;;;12.30;;
5199;SDS011;2619;47.868;11.892;2023-01-28T16:42:53;25.37;;;12.67;;
5199;SDS011;2619;47.868;11.892;2023-01-28T16:45:23;24.17;;;12.60;;
5199;SDS011;2619;47.868;11.892;2023-01-28T16:47:50;23.63;;;12.57;;
5199;SDS011;2619;47.868;11.892;2023-01-28T16:50:16;21.90;;;11.30;;
5199;SDS011;2619;47.868;11.892;2023-01-28T16:52:43;20.10;;;11.60;;
5199;SDS011;2619;47.868;11.892;2023-01-28T16:55:15;25.63;;;13.57;;
5199;SDS011;2619;47.868;11.892;2023-01-28T16:57:43;27.20;;;13.50;;
5199;SDS011;2619;47.868;11.892;2023-01-28T17:00:14;22.53;;;12.50;;
5199;SDS011;2619;47.868;11.892;2023-01-28T17:02:42;21.57;;;11.70;;
5199;SDS011;2619;47.868;11.892;2023-01-28T17:05:08;23.90;;;12.67;;
5199;SDS011;2619;47.868;11.892;2023-01-28T17:07:39;22.07;;;13.27;;
5199;SDS011;2619;47.868;11.892;2023-01-28T17:10:05;24.40;;;13.20;;